Skip to Main Content
SEARCH:
Location Air RH Dwp Precip Type Wind Speed Wind Gust Direction Pavement Temperature Date/Time
Hatem Bridge US 40 E/B 82 76 74 None 14 mph 19 mph SW 89 - 89 6/23/2017 6:06:00 PM
I-270 at I-370 83 72 73 None Calm Calm NW 101 - 97 6/23/2017 6:05:00 PM
I-270 at MD-109 83 76 75 None Calm 9 mph SE 98 - 99 6/23/2017 6:05:00 PM
I-495 at American Legion Bridge 84 78 76 None 5 mph 13 mph SW 100 - 101 6/23/2017 6:05:00 PM
I-68 at MD-219 71 86 67 None 12 mph 24 mph W 84 - 86 6/23/2017 6:05:00 PM
I-68 at Savage Mt 74 77 67 None 5 mph 14 mph SW 96 - 98 6/23/2017 6:05:00 PM
I-68 at Sideling Hill 80 83 74 None Calm 11 mph S 100 - 102 6/23/2017 6:05:00 PM
I-68 at WV Line 74 78 67 None Calm 8 mph W 86 - 87 6/23/2017 6:05:00 PM
I-695 at I-83 82 70 72 None 5 mph 18 mph W 101 - 99 6/23/2017 6:05:00 PM
I-70 at Fred-Wash Co. - - - No Data Available - - No Data Available -
I-70 at I-695 84 69 73 None 10 mph 20 mph SW 101 - 98 6/23/2017 6:05:00 PM
I-70 at I-81 - - - No Data Available - - No Data Available -
I-70 at MD-27 83 75 74 None 6 mph 24 mph SW 101 - 99 6/23/2017 6:05:00 PM
I-70 at MD-32 82 72 73 None 10 mph 22 mph SW 102 - 97 6/23/2017 6:05:00 PM
I-83 at MD-137 82 79 75 None 6 mph 16 mph S 98 - 98 6/23/2017 6:05:00 PM
I-95 at I-695 NE 84 69 73 None 12 mph 15 mph SW 93 - 97 6/23/2017 6:06:00 PM
I-95 at Patuxent River 86 67 74 None 9 mph 24 mph W 100 - 100 6/23/2017 6:05:00 PM
I-95 at Tydings Bridge 82 75 74 None 11 mph 24 mph SW 94 - 96 6/23/2017 6:05:00 PM
I-95/495 at I-295 87 72 77 None Calm 8 mph SW 91 - 94 6/23/2017 6:05:00 PM
I-97 at MD-100 84 71 73 None 12 mph 22 mph SW 94 - 96 6/23/2017 6:05:00 PM
I-97 at MD-32 83 73 73 None 6 mph 17 mph N 94 - 95 6/23/2017 6:05:00 PM
MD 20 at MD 21 82 79 75 None 11 mph 21 mph S 100 - 100 6/23/2017 6:05:00 PM
MD 231 at Patuxent River 84 71 74 None 11 mph 18 mph SW 101 - 96 6/23/2017 6:05:00 PM
MD 260 at Cox Rd 84 73 75 None 7 mph 13 mph SW 103 - 103 6/23/2017 6:05:00 PM
MD-135 at Salt Dome 75 80 68 None 9 mph 17 mph SW 102 - 102 6/23/2017 6:05:00 PM
MD-140 at MD-97 80 75 72 None 8 mph 24 mph SW 100 - 100 6/23/2017 6:05:00 PM
MD-200 EB at Bonifant Rd 82 77 74 None Calm 4 mph W 90 - 94 6/23/2017 6:05:00 PM
MD-200 WB at Muncaster Mill Rd - - - No Data Available - - No Data Available -
MD-213 at Sassafras River 83 82 77 None 14 mph 25 mph SW 91 - 91 6/23/2017 6:05:00 PM
MD-24 at Rock St Park 80 91 77 None Calm Calm E 87 - 87 6/23/2017 6:05:00 PM
MD-30 at PA Line 81 80 74 None 8 mph 17 mph S 105 - 105 6/23/2017 6:05:00 PM
MD-301 at MD-305 84 74 75 None 12 mph 19 mph SW 102 - 103 6/23/2017 6:05:00 PM
MD-33 at Knapps Narrows Drawbridge 83 78 76 None 6 mph 15 mph S 101 - 101 6/23/2017 6:05:00 PM
MD-344 at MD-224 84 74 75 None Calm Calm S 101 - 101 6/23/2017 6:05:00 PM
MD-4 at Patuxent River 88 68 76 None - - No Data Available 100 - 105 6/23/2017 6:05:00 PM
MD-404 at Choptank River 85 70 74 None 8 mph 17 mph SW 100 - 97 6/23/2017 6:05:00 PM
MD-43 at MD-150 84 73 75 None 13 mph 21 mph SW 95 - 97 6/23/2017 6:05:00 PM
MD-51 at Oldtown Salt Dome 84 65 71 None Calm 8 mph W 102 - 102 6/23/2017 6:05:00 PM
MD-64 at MD-418 - - - No Data Available - - No Data Available -
US-1 at Baltimore / Harford Co. Line 82 72 73 None 5 mph 16 mph SE 92 - 94 6/23/2017 6:05:00 PM
US-1 at Conowingo Dam 84 79 77 None 6 mph 13 mph S 98 - 98 6/23/2017 6:05:00 PM
US-13 at US-113 86 68 74 None 13 mph 23 mph SW 111 - 111 6/23/2017 6:05:00 PM
US-13 at US-50 - - - No Data Available - - No Data Available -
US-15 at MD-140 83 71 73 None 11 mph 18 mph S 101 - 104 6/23/2017 6:05:00 PM
US-301 at MD-5 84 77 76 None 7 mph 16 mph S 100 - 99 6/23/2017 6:05:00 PM
US-301 at Potomac 86 74 77 None 18 mph 25 mph SW 97 - 97 6/23/2017 6:05:00 PM
US-301 on HWN Bridge 86 63 72 None 22 mph 25 mph SW 94 - 94 6/23/2017 6:07:00 PM
US-340 at MD-180 81 72 72 None Calm 9 mph SW 101 - 99 6/23/2017 6:05:00 PM
US-50 at Choptank 86 77 78 None 4 mph 17 mph SW 100 - 100 6/23/2017 6:05:00 PM
US-50 at I-95 - - - No Data Available - - No Data Available -
US-50 at MD-2 83 80 76 None 7 mph 18 mph S 94 - 96 6/23/2017 6:05:00 PM
US-50 at MD-331 88 67 76 None 15 mph 22 mph SW 100 - 101 6/23/2017 6:05:00 PM
US-50 at OC Drawbridge 76 83 71 None Calm 11 mph S 99 - 99 6/23/2017 6:05:00 PM
US-50 at Table Rock Rd 72 84 67 None 4 mph 19 mph NW 93 - 93 6/23/2017 6:05:00 PM
US-50 Kent Narrow Bridge 83 87 79 None 9 mph 18 mph S 94 - 95 6/23/2017 6:05:00 PM
WPL Pier 31 82 77 74 None 5 mph 5 mph SW 91 - 91 6/23/2017 6:05:00 PM
Location Air RH Dwp Precip Type Wind Speed Wind Gust Direction Pavement Temperature Date/Time